createdAt,value
2023-02-17T00:00:56.790Z,194.05
2023-02-17T00:03:24.858Z,205.52
2023-02-17T00:05:52.672Z,192.93
2023-02-17T00:08:20.296Z,190.52
2023-02-17T00:10:56.666Z,194.80
2023-02-17T00:13:24.308Z,199.75
2023-02-17T00:15:53.548Z,201.10
2023-02-17T00:18:21.374Z,201.60
2023-02-17T00:20:49.034Z,205.70
2023-02-17T00:23:16.694Z,208.98
2023-02-17T00:25:44.721Z,202.15
2023-02-17T00:28:12.486Z,198.30
2023-02-17T00:30:40.190Z,201.80
2023-02-17T00:33:09.158Z,213.60
2023-02-17T00:35:40.802Z,208.88
2023-02-17T00:38:09.764Z,217.95
2023-02-17T00:40:38.817Z,221.85
2023-02-17T00:43:06.710Z,206.13
2023-02-17T00:45:34.766Z,212.60
2023-02-17T00:48:02.434Z,211.77
2023-02-17T00:50:31.449Z,225.55
2023-02-17T00:52:59.128Z,208.68
2023-02-17T00:55:26.931Z,226.02
2023-02-17T00:57:54.600Z,220.90
2023-02-17T01:00:22.752Z,218.82
2023-02-17T01:02:50.642Z,222.10
2023-02-17T01:05:18.440Z,230.55
2023-02-17T01:07:48.845Z,234.60
2023-02-17T01:10:17.049Z,239.23
2023-02-17T01:12:44.769Z,214.88
2023-02-17T01:15:12.671Z,230.13
2023-02-17T01:17:40.462Z,228.52
2023-02-17T01:20:09.185Z,237.25
2023-02-17T01:22:39.102Z,226.32
2023-02-17T01:25:10.106Z,212.63
2023-02-17T01:27:37.937Z,227.00
2023-02-17T01:30:07.008Z,212.35
2023-02-17T01:32:34.721Z,232.23
2023-02-17T01:35:02.393Z,230.75
2023-02-17T01:37:30.053Z,226.57
2023-02-17T01:39:57.664Z,238.57
2023-02-17T01:42:26.823Z,225.05
2023-02-17T01:45:31.186Z,225.43
2023-02-17T01:48:03.797Z,213.98
2023-02-17T01:50:34.714Z,218.40
2023-02-17T01:53:05.285Z,229.55
2023-02-17T01:55:34.868Z,220.75
2023-02-17T01:58:09.955Z,213.88
2023-02-17T02:00:38.207Z,228.32
2023-02-17T02:03:10.035Z,234.20
2023-02-17T02:05:40.584Z,220.48
2023-02-17T02:08:09.627Z,209.38
2023-02-17T02:10:37.276Z,227.25
2023-02-17T02:13:09.116Z,216.13
2023-02-17T02:15:45.459Z,215.45
2023-02-17T02:18:24.727Z,218.23
2023-02-17T02:21:15.576Z,217.25
2023-02-17T02:24:08.477Z,207.82
2023-02-17T02:27:03.139Z,211.27
2023-02-17T02:30:03.620Z,207.57
2023-02-17T02:32:46.664Z,212.48
2023-02-17T02:35:19.450Z,213.60
2023-02-17T02:37:52.977Z,223.40
2023-02-17T02:40:25.292Z,214.77
2023-02-17T02:42:53.800Z,223.18
2023-02-17T02:45:22.814Z,218.27
2023-02-17T02:47:54.080Z,217.38
2023-02-17T02:50:42.497Z,234.52
2023-02-17T02:53:29.020Z,213.05
2023-02-17T02:56:03.761Z,213.05
2023-02-17T02:58:39.407Z,226.38
2023-02-17T03:01:18.962Z,213.88
2023-02-17T03:03:56.116Z,218.88
2023-02-17T03:06:30.737Z,212.85
2023-02-17T03:09:05.145Z,225.57
2023-02-17T03:11:35.612Z,238.77
2023-02-17T03:14:07.005Z,233.45
2023-02-17T03:16:35.477Z,235.70
2023-02-17T03:19:04.841Z,253.93
2023-02-17T03:21:38.077Z,259.10
2023-02-17T03:24:08.129Z,251.88
2023-02-17T03:26:36.021Z,251.82
2023-02-17T03:29:03.928Z,253.90
2023-02-17T03:31:32.370Z,260.55
2023-02-17T03:34:00.807Z,246.50
2023-02-17T03:36:30.129Z,244.13
2023-02-17T03:38:58.189Z,258.88
2023-02-17T03:41:26.183Z,257.23
2023-02-17T03:43:53.849Z,241.35
2023-02-17T03:46:22.340Z,265.60
2023-02-17T03:48:50.171Z,254.07
2023-02-17T03:51:20.451Z,242.13
2023-02-17T03:53:49.900Z,266.58
2023-02-17T03:56:18.565Z,254.23
2023-02-17T03:58:46.616Z,263.38
2023-02-17T04:01:14.944Z,270.42
2023-02-17T04:03:43.159Z,257.35
2023-02-17T04:06:12.186Z,258.95
2023-02-17T04:08:40.692Z,274.13
2023-02-17T04:11:10.814Z,262.58
2023-02-17T04:13:39.954Z,252.38
2023-02-17T04:16:09.294Z,251.35
2023-02-17T04:18:37.743Z,264.27
2023-02-17T04:21:06.282Z,251.13
2023-02-17T04:23:35.392Z,252.90
2023-02-17T04:26:03.249Z,267.55
2023-02-17T04:28:32.448Z,259.25
2023-02-17T04:31:00.821Z,264.70
2023-02-17T04:33:28.683Z,237.77
2023-02-17T04:35:59.572Z,261.25
2023-02-17T04:38:28.284Z,248.98
2023-02-17T04:40:57.099Z,252.10
2023-02-17T04:43:25.976Z,258.75
2023-02-17T04:45:55.214Z,264.40
2023-02-17T04:48:23.454Z,249.85
2023-02-17T04:50:51.191Z,254.10
2023-02-17T04:53:18.971Z,251.18
2023-02-17T04:55:49.389Z,255.05
2023-02-17T04:58:17.187Z,242.45
2023-02-17T05:00:44.918Z,242.40
2023-02-17T05:03:13.964Z,259.83
2023-02-17T05:05:41.622Z,247.40
2023-02-17T05:08:09.482Z,242.02
2023-02-17T05:10:37.218Z,263.73
2023-02-17T05:13:04.935Z,253.80
2023-02-17T05:15:34.789Z,255.60
2023-02-17T05:18:02.992Z,243.40
2023-02-17T05:20:32.078Z,236.73
2023-02-17T05:22:59.743Z,235.68
2023-02-17T05:25:27.431Z,261.95
2023-02-17T05:27:55.270Z,270.88
2023-02-17T05:30:23.212Z,240.15
2023-02-17T05:32:50.867Z,241.57
2023-02-17T05:35:18.755Z,255.57
2023-02-17T05:37:47.756Z,252.32
2023-02-17T05:40:15.456Z,249.75
2023-02-17T05:42:43.078Z,241.23
2023-02-17T05:45:11.324Z,252.65
2023-02-17T05:47:38.968Z,236.25
2023-02-17T05:50:08.003Z,246.60
2023-02-17T05:52:35.658Z,231.13
2023-02-17T05:55:05.155Z,251.82
2023-02-17T05:57:33.342Z,229.18
2023-02-17T06:00:01.065Z,232.75
2023-02-17T06:02:28.798Z,234.48
2023-02-17T06:04:56.470Z,235.07
2023-02-17T06:07:24.181Z,240.35
2023-02-17T06:09:51.814Z,230.18
2023-02-17T06:12:20.896Z,230.77
2023-02-17T06:14:48.557Z,245.77
2023-02-17T06:17:16.368Z,227.52
2023-02-17T06:19:44.025Z,233.52
2023-02-17T06:22:11.802Z,247.10
2023-02-17T06:24:39.572Z,236.07
2023-02-17T06:27:07.430Z,226.38
2023-02-17T06:29:36.476Z,246.75
2023-02-17T06:32:04.555Z,229.85
2023-02-17T06:34:32.437Z,243.73
2023-02-17T06:37:00.142Z,254.02
2023-02-17T06:39:28.132Z,255.77
2023-02-17T06:41:55.782Z,236.60
2023-02-17T06:44:23.581Z,253.93
2023-02-17T06:46:52.641Z,254.85
2023-02-17T06:49:20.463Z,259.10
2023-02-17T06:51:48.088Z,261.63
2023-02-17T06:54:16.809Z,250.00
2023-02-17T06:56:44.694Z,272.43
2023-02-17T06:59:12.398Z,266.27
2023-02-17T07:01:40.149Z,266.90
2023-02-17T07:04:09.822Z,261.73
2023-02-17T07:06:37.552Z,256.60
2023-02-17T07:09:05.234Z,261.98
2023-02-17T07:11:33.033Z,273.85
2023-02-17T07:14:01.362Z,270.17
2023-02-17T07:16:29.237Z,265.98
2023-02-17T07:18:57.177Z,244.52
2023-02-17T07:21:26.392Z,267.38
2023-02-17T07:23:54.215Z,256.58
2023-02-17T07:26:22.072Z,253.18
2023-02-17T07:28:49.765Z,246.05
2023-02-17T07:31:18.608Z,253.48
2023-02-17T07:33:48.035Z,245.60
2023-02-17T07:36:18.050Z,244.02
2023-02-17T07:38:47.175Z,243.57
2023-02-17T07:41:16.861Z,241.85
2023-02-17T07:43:45.329Z,234.55
2023-02-17T07:46:13.832Z,239.07
2023-02-17T07:48:41.842Z,244.67
2023-02-17T07:51:11.186Z,237.80
2023-02-17T07:53:39.358Z,234.15
2023-02-17T07:56:10.850Z,234.85
2023-02-17T07:58:40.717Z,225.77
2023-02-17T08:01:08.737Z,234.63
2023-02-17T08:03:36.512Z,227.80
2023-02-17T08:06:04.834Z,222.13
2023-02-17T08:08:50.486Z,230.27
2023-02-17T08:11:37.347Z,228.48
2023-02-17T08:14:05.179Z,201.13
2023-02-17T08:16:32.874Z,219.60
2023-02-17T08:19:00.589Z,223.67
2023-02-17T08:21:28.875Z,216.77
2023-02-17T08:23:56.793Z,207.53
2023-02-17T08:26:26.498Z,220.48
2023-02-17T08:28:54.167Z,202.85
2023-02-17T08:31:24.961Z,207.02
2023-02-17T08:33:53.566Z,215.32
2023-02-17T08:36:22.290Z,223.32
2023-02-17T08:38:51.156Z,230.32
2023-02-17T08:41:22.241Z,228.93
2023-02-17T08:43:51.950Z,210.38
2023-02-17T08:46:20.729Z,236.85
2023-02-17T08:48:49.418Z,223.35
2023-02-17T08:51:23.491Z,223.25
2023-02-17T08:53:51.751Z,230.50
2023-02-17T08:56:19.430Z,219.45
2023-02-17T08:58:47.403Z,239.40
2023-02-17T09:01:18.385Z,223.27
2023-02-17T09:03:47.486Z,216.77
2023-02-17T09:06:16.154Z,225.23
2023-02-17T09:08:44.924Z,227.80
2023-02-17T09:11:15.343Z,231.75
2023-02-17T09:13:43.162Z,222.13
2023-02-17T09:16:11.323Z,221.88
2023-02-17T09:18:40.413Z,228.77
2023-02-17T09:21:09.342Z,228.27
2023-02-17T09:23:37.497Z,211.35
2023-02-17T09:26:06.604Z,234.93
2023-02-17T09:28:34.969Z,235.00
2023-02-17T09:31:09.768Z,240.15
2023-02-17T09:33:37.590Z,240.02
2023-02-17T09:36:08.780Z,230.18
2023-02-17T09:38:38.269Z,213.27
2023-02-17T09:41:16.859Z,239.18
2023-02-17T09:43:44.810Z,223.27
2023-02-17T09:46:16.503Z,234.57
2023-02-17T09:48:46.551Z,253.52
2023-02-17T09:51:22.687Z,238.30
2023-02-17T09:53:57.742Z,217.25
2023-02-17T09:56:33.495Z,248.68
2023-02-17T09:59:07.173Z,242.57
2023-02-17T10:01:36.510Z,252.50
2023-02-17T10:04:09.504Z,259.67
2023-02-17T10:06:41.112Z,246.88
2023-02-17T10:09:13.646Z,245.38
2023-02-17T10:11:46.728Z,246.38
2023-02-17T10:14:20.036Z,254.75
2023-02-17T10:16:52.652Z,232.88
2023-02-17T10:19:26.297Z,250.98
2023-02-17T10:22:02.912Z,234.68
2023-02-17T10:24:30.824Z,255.88
2023-02-17T10:27:15.471Z,258.67
2023-02-17T10:29:52.584Z,229.43
2023-02-17T10:32:24.249Z,258.30
2023-02-17T10:35:05.832Z,238.70
2023-02-17T10:37:42.167Z,234.18
2023-02-17T10:40:15.731Z,241.32
2023-02-17T10:42:43.535Z,257.88
2023-02-17T10:45:20.591Z,249.60
2023-02-17T10:47:48.584Z,262.05
2023-02-17T10:50:21.220Z,247.20
2023-02-17T10:52:51.212Z,243.45
2023-02-17T10:55:24.078Z,244.85
2023-02-17T10:58:05.612Z,242.10
2023-02-17T11:00:33.805Z,253.48
2023-02-17T11:03:01.838Z,249.88
2023-02-17T11:05:32.270Z,252.35
2023-02-17T11:08:04.124Z,260.70
2023-02-17T11:10:35.789Z,249.55
2023-02-17T11:13:06.169Z,254.82
2023-02-17T11:15:44.479Z,253.23
2023-02-17T11:18:19.376Z,258.85
2023-02-17T11:20:47.947Z,251.77
2023-02-17T11:23:25.215Z,273.13
2023-02-17T11:25:59.110Z,248.93
2023-02-17T11:28:27.381Z,265.13
2023-02-17T11:30:57.841Z,265.80
2023-02-17T11:33:36.418Z,256.30
2023-02-17T11:36:06.742Z,259.88
2023-02-17T11:38:46.237Z,251.85
2023-02-17T11:41:14.268Z,275.10
2023-02-17T11:43:52.925Z,268.17
2023-02-17T11:46:34.786Z,271.13
2023-02-17T11:49:25.822Z,248.23
2023-02-17T11:52:05.893Z,270.52
2023-02-17T11:54:44.872Z,262.98
2023-02-17T11:57:25.749Z,263.20
2023-02-17T12:00:15.316Z,265.25
2023-02-17T12:03:02.547Z,242.70
2023-02-17T12:05:40.634Z,251.45
2023-02-17T12:08:20.975Z,261.25
2023-02-17T12:11:05.773Z,256.77
2023-02-17T12:13:47.997Z,242.70
2023-02-17T12:16:46.989Z,264.65
2023-02-17T12:19:32.775Z,249.32
2023-02-17T12:22:10.186Z,262.27
2023-02-17T12:24:52.700Z,258.90
2023-02-17T12:27:33.132Z,286.58
2023-02-17T12:30:15.629Z,262.10
2023-02-17T12:33:04.508Z,273.23
2023-02-17T12:35:40.182Z,260.70
2023-02-17T12:38:15.302Z,253.75
2023-02-17T12:40:48.208Z,251.00
2023-02-17T12:43:26.312Z,273.98
2023-02-17T12:45:57.286Z,264.75
2023-02-17T12:48:32.239Z,270.38
2023-02-17T12:51:06.888Z,277.10
2023-02-17T12:53:43.187Z,263.98
2023-02-17T12:56:38.154Z,276.02
2023-02-17T12:59:15.411Z,269.83
2023-02-17T13:01:51.744Z,283.20
2023-02-17T13:04:21.309Z,256.35
2023-02-17T13:06:54.987Z,256.05
2023-02-17T13:09:31.326Z,289.55
2023-02-17T13:12:19.798Z,274.23
2023-02-17T13:14:50.727Z,288.88
2023-02-17T13:17:26.723Z,274.45
2023-02-17T13:20:29.066Z,282.50
2023-02-17T13:23:08.245Z,257.75
2023-02-17T13:25:37.851Z,286.63
2023-02-17T13:28:34.104Z,273.38
2023-02-17T13:31:13.121Z,286.25
2023-02-17T13:33:44.519Z,269.67
2023-02-17T13:36:22.463Z,298.80
2023-02-17T13:38:56.654Z,281.75
2023-02-17T13:41:24.394Z,285.50
2023-02-17T13:43:52.030Z,299.50
2023-02-17T13:46:25.108Z,314.85
2023-02-17T13:49:04.331Z,321.83
2023-02-17T13:51:33.766Z,278.25
2023-02-17T13:54:09.496Z,291.20
2023-02-17T13:56:37.185Z,306.67
2023-02-17T13:59:09.551Z,299.83
2023-02-17T14:01:42.458Z,299.98
2023-02-17T14:04:21.664Z,305.02
2023-02-17T14:06:50.221Z,290.27
2023-02-17T14:09:23.698Z,285.02
2023-02-17T14:11:52.259Z,278.30
2023-02-17T14:14:20.282Z,290.17
2023-02-17T14:16:58.691Z,262.55
2023-02-17T14:19:26.433Z,288.05
2023-02-17T14:22:04.013Z,283.85
2023-02-17T14:24:33.374Z,275.17
2023-02-17T14:27:03.181Z,267.10
2023-02-17T14:29:42.966Z,285.25
2023-02-17T14:32:30.916Z,268.48
2023-02-17T14:35:22.443Z,274.27
2023-02-17T14:37:50.516Z,242.73
2023-02-17T14:40:20.383Z,264.10
2023-02-17T14:42:48.534Z,284.05
2023-02-17T14:45:17.900Z,259.10
2023-02-17T14:47:47.392Z,274.63
2023-02-17T14:50:17.287Z,279.02
2023-02-17T14:52:46.918Z,265.38
2023-02-17T14:55:19.712Z,276.70
2023-02-17T14:57:47.441Z,282.00
2023-02-17T15:00:16.353Z,274.65
2023-02-17T15:02:44.067Z,278.17
2023-02-17T15:05:13.156Z,274.83
2023-02-17T15:07:42.235Z,282.52
2023-02-17T15:10:18.980Z,263.95
2023-02-17T15:12:46.816Z,240.20
2023-02-17T15:15:16.079Z,253.20
2023-02-17T15:17:43.912Z,285.67
2023-02-17T15:20:15.369Z,274.30
2023-02-17T15:22:44.397Z,263.65
2023-02-17T15:25:16.958Z,273.58
2023-02-17T15:27:45.289Z,290.30
2023-02-17T15:30:15.879Z,284.23
2023-02-17T15:32:44.447Z,283.20
2023-02-17T15:35:22.571Z,275.77
2023-02-17T15:37:51.006Z,258.27
2023-02-17T15:40:21.128Z,274.63
2023-02-17T15:42:54.417Z,278.45
2023-02-17T15:45:23.929Z,260.17
2023-02-17T15:47:53.415Z,266.85
2023-02-17T15:50:23.804Z,267.23
2023-02-17T15:52:51.936Z,268.85
2023-02-17T15:55:20.365Z,267.10
2023-02-17T15:57:49.766Z,271.63
2023-02-17T16:00:20.638Z,270.00
2023-02-17T16:02:48.443Z,271.10
2023-02-17T16:05:18.474Z,262.75
2023-02-17T16:07:48.033Z,265.02
2023-02-17T16:10:18.026Z,255.98
2023-02-17T16:12:46.870Z,269.55
2023-02-17T16:15:17.782Z,277.98
2023-02-17T16:17:46.342Z,272.33
2023-02-17T16:20:17.694Z,262.63
2023-02-17T16:22:47.710Z,273.45
2023-02-17T16:25:17.286Z,268.02
2023-02-17T16:27:47.024Z,269.90
2023-02-17T16:30:19.624Z,260.52
2023-02-17T16:32:48.032Z,274.67
2023-02-17T16:35:16.842Z,267.58
2023-02-17T16:37:53.755Z,263.60
2023-02-17T16:40:23.850Z,264.20
2023-02-17T16:42:51.949Z,260.48
2023-02-17T16:45:22.039Z,265.38
2023-02-17T16:47:51.581Z,268.88
2023-02-17T16:50:24.792Z,249.18
2023-02-17T16:52:55.325Z,264.42
2023-02-17T16:55:24.721Z,272.35
2023-02-17T16:57:52.489Z,271.25
2023-02-17T17:00:22.544Z,275.40
2023-02-17T17:02:51.037Z,248.68
2023-02-17T17:05:20.250Z,290.45
2023-02-17T17:07:48.968Z,265.25
2023-02-17T17:10:22.664Z,266.20
2023-02-17T17:12:50.633Z,263.58
2023-02-17T17:15:19.368Z,272.05
2023-02-17T17:17:49.555Z,270.77
2023-02-17T17:20:18.940Z,287.45
2023-02-17T17:22:49.215Z,283.20
2023-02-17T17:25:18.599Z,249.05
2023-02-17T17:27:46.598Z,280.02
2023-02-17T17:30:18.677Z,272.63
2023-02-17T17:32:46.688Z,277.60
2023-02-17T17:35:14.645Z,267.45
2023-02-17T17:37:42.465Z,281.92
2023-02-17T17:40:16.912Z,283.23
2023-02-17T17:42:46.257Z,254.77
2023-02-17T17:45:15.099Z,278.65
2023-02-17T17:47:43.164Z,287.77
2023-02-17T17:50:17.169Z,254.70
2023-02-17T17:52:45.138Z,271.13
2023-02-17T17:55:13.290Z,259.00
2023-02-17T17:57:41.319Z,261.58
2023-02-17T18:00:13.052Z,273.10
2023-02-17T18:02:43.681Z,274.25
2023-02-17T18:05:12.292Z,258.42
2023-02-17T18:07:41.464Z,258.52
2023-02-17T18:10:10.914Z,262.83
2023-02-17T18:12:39.778Z,287.92
2023-02-17T18:15:10.266Z,277.67
2023-02-17T18:17:39.897Z,266.98
2023-02-17T18:20:12.083Z,260.67
2023-02-17T18:22:39.841Z,252.77
2023-02-17T18:25:08.212Z,270.77
2023-02-17T18:27:41.411Z,272.33
2023-02-17T18:30:12.430Z,269.80
2023-02-17T18:32:40.506Z,276.60
2023-02-17T18:35:09.183Z,264.83
2023-02-17T18:37:37.030Z,255.80
2023-02-17T18:40:05.529Z,280.55
2023-02-17T18:42:33.986Z,273.30
2023-02-17T18:45:01.864Z,271.35
2023-02-17T18:47:30.921Z,280.20
2023-02-17T18:49:58.951Z,266.10
2023-02-17T18:52:26.794Z,263.58
2023-02-17T18:54:54.505Z,256.83
2023-02-17T18:57:22.212Z,262.48
2023-02-17T18:59:50.361Z,263.50
2023-02-17T19:02:18.375Z,295.92
2023-02-17T19:04:47.441Z,261.55
2023-02-17T19:07:15.137Z,264.38
2023-02-17T19:09:43.241Z,270.13
2023-02-17T19:12:13.450Z,266.65
2023-02-17T19:14:41.997Z,273.08
2023-02-17T19:17:10.679Z,285.60
2023-02-17T19:19:38.622Z,266.48
2023-02-17T19:22:09.497Z,290.10
2023-02-17T19:24:37.476Z,277.83
2023-02-17T19:27:05.772Z,265.17
2023-02-17T19:29:34.115Z,262.02
2023-02-17T19:32:03.354Z,267.98
2023-02-17T19:34:32.125Z,277.65
2023-02-17T19:36:59.804Z,267.17
2023-02-17T19:39:28.906Z,277.42
2023-02-17T19:41:56.585Z,261.08
2023-02-17T19:44:24.314Z,269.40
2023-02-17T19:46:51.989Z,266.88
2023-02-17T19:49:19.760Z,281.63
2023-02-17T19:51:47.689Z,271.88
2023-02-17T19:54:15.377Z,276.10
2023-02-17T19:56:44.509Z,274.80
2023-02-17T19:59:12.181Z,288.95
2023-02-17T20:01:42.355Z,280.83
2023-02-17T20:04:11.413Z,263.90
2023-02-17T20:06:41.559Z,267.13
2023-02-17T20:09:11.623Z,263.13
2023-02-17T20:11:39.384Z,262.80
2023-02-17T20:14:08.528Z,275.25
2023-02-17T20:16:36.426Z,263.35
2023-02-17T20:19:05.990Z,271.98
2023-02-17T20:21:35.849Z,260.30
2023-02-17T20:24:03.740Z,271.48
2023-02-17T20:26:34.213Z,265.75
2023-02-17T20:29:03.085Z,266.13
2023-02-17T20:31:32.416Z,266.42
2023-02-17T20:34:00.549Z,280.65
2023-02-17T20:36:28.376Z,255.77
2023-02-17T20:38:56.065Z,267.75
2023-02-17T20:41:24.554Z,267.10
2023-02-17T20:43:53.350Z,261.27
2023-02-17T20:46:24.592Z,262.23
2023-02-17T20:48:54.583Z,260.02
2023-02-17T20:51:22.717Z,258.85
2023-02-17T20:53:51.072Z,273.38
2023-02-17T20:56:20.923Z,271.35
2023-02-17T20:58:48.668Z,269.50
2023-02-17T21:01:16.587Z,279.10
2023-02-17T21:03:44.423Z,264.83
2023-02-17T21:06:21.676Z,259.77
2023-02-17T21:08:51.516Z,254.73
2023-02-17T21:11:19.327Z,265.15
2023-02-17T21:13:47.634Z,288.55
2023-02-17T21:16:17.431Z,289.38
2023-02-17T21:18:46.994Z,281.20
2023-02-17T21:21:15.395Z,259.15
2023-02-17T21:23:44.668Z,275.48
2023-02-17T21:26:13.794Z,245.30
2023-02-17T21:28:41.526Z,280.27
2023-02-17T21:31:09.959Z,265.90
2023-02-17T21:33:41.694Z,256.52
2023-02-17T21:36:10.646Z,277.30
2023-02-17T21:38:38.567Z,259.77
2023-02-17T21:41:11.141Z,269.52
2023-02-17T21:43:57.053Z,274.38
2023-02-17T21:46:25.987Z,259.13
2023-02-17T21:48:54.126Z,279.15
2023-02-17T21:51:21.854Z,257.13
2023-02-17T21:53:49.858Z,275.05
2023-02-17T21:56:19.463Z,275.25
2023-02-17T21:58:47.518Z,277.98
2023-02-17T22:01:15.274Z,270.15
2023-02-17T22:03:43.161Z,282.38
2023-02-17T22:06:15.856Z,275.95
2023-02-17T22:08:43.540Z,281.52
2023-02-17T22:11:15.875Z,259.45
2023-02-17T22:13:45.074Z,266.70
2023-02-17T22:16:13.118Z,278.08
2023-02-17T22:18:41.600Z,270.48
2023-02-17T22:21:10.731Z,273.02
2023-02-17T22:23:38.504Z,276.45
2023-02-17T22:26:08.549Z,279.75
2023-02-17T22:28:36.315Z,275.83
2023-02-17T22:31:05.830Z,270.27
2023-02-17T22:33:34.056Z,271.42
2023-02-17T22:36:03.921Z,260.30
2023-02-17T22:38:32.167Z,249.52
2023-02-17T22:40:59.926Z,263.38
2023-02-17T22:43:27.600Z,265.35
2023-02-17T22:45:59.399Z,267.25
2023-02-17T22:48:29.261Z,259.63
2023-02-17T22:50:57.297Z,260.30
2023-02-17T22:53:25.246Z,273.52
2023-02-17T22:55:53.834Z,266.20
2023-02-17T22:58:21.972Z,266.13
2023-02-17T23:00:50.189Z,269.75
2023-02-17T23:03:18.712Z,277.08
2023-02-17T23:05:47.792Z,259.50
2023-02-17T23:08:15.469Z,283.65
2023-02-17T23:10:43.923Z,271.13
2023-02-17T23:13:11.688Z,255.77
2023-02-17T23:15:40.615Z,245.77
2023-02-17T23:18:09.655Z,254.07
2023-02-17T23:20:40.111Z,267.80
2023-02-17T23:23:09.611Z,259.63
2023-02-17T23:25:39.911Z,277.67
2023-02-17T23:28:07.813Z,276.08
2023-02-17T23:30:36.000Z,272.10
2023-02-17T23:33:03.901Z,270.08
2023-02-17T23:35:31.642Z,253.15
2023-02-17T23:38:00.700Z,270.85
2023-02-17T23:40:29.713Z,270.17
2023-02-17T23:42:57.827Z,265.58
2023-02-17T23:45:25.617Z,267.50
2023-02-17T23:47:53.249Z,263.67
2023-02-17T23:50:21.141Z,248.57
2023-02-17T23:52:48.823Z,253.05
2023-02-17T23:55:16.788Z,253.73
2023-02-17T23:57:45.816Z,257.42
